createdAt,value
2022-11-18T00:00:05.496Z,1.47
2022-11-18T00:02:57.701Z,1.46
2022-11-18T00:05:29.934Z,1.49
2022-11-18T00:08:02.069Z,1.47
2022-11-18T00:10:34.432Z,1.43
2022-11-18T00:13:24.443Z,1.41
2022-11-18T00:16:04.078Z,1.37
2022-11-18T00:18:37.179Z,1.37
2022-11-18T00:21:11.569Z,1.37
2022-11-18T00:23:43.967Z,1.39
2022-11-18T00:26:19.714Z,1.41
2022-11-18T00:28:51.828Z,1.42
2022-11-18T00:31:24.008Z,1.45
2022-11-18T00:33:56.717Z,1.48
2022-11-18T00:36:30.008Z,1.48
2022-11-18T00:39:02.152Z,1.49
2022-11-18T00:41:48.656Z,1.49
2022-11-18T00:44:20.873Z,1.51
2022-11-18T00:46:53.092Z,1.53
2022-11-18T00:49:25.382Z,1.53
2022-11-18T00:51:57.558Z,1.54
2022-11-18T00:54:29.710Z,1.56
2022-11-18T00:57:02.022Z,1.58
2022-11-18T00:59:37.141Z,1.60
2022-11-18T01:02:09.680Z,1.62
2022-11-18T01:04:42.028Z,1.64
2022-11-18T01:07:14.398Z,1.63
2022-11-18T01:09:46.602Z,1.63
2022-11-18T01:12:36.642Z,1.64
2022-11-18T01:15:13.652Z,1.64
2022-11-18T01:17:45.800Z,1.64
2022-11-18T01:20:18.817Z,1.65
2022-11-18T01:22:50.967Z,1.67
2022-11-18T01:25:23.410Z,1.69
2022-11-18T01:27:55.687Z,1.70
2022-11-18T01:30:27.927Z,1.68
2022-11-18T01:33:01.056Z,1.66
2022-11-18T01:35:35.274Z,1.65
2022-11-18T01:38:11.137Z,1.65
2022-11-18T01:40:43.748Z,1.64
2022-11-18T01:43:19.704Z,1.60
2022-11-18T01:45:54.310Z,1.59
2022-11-18T01:48:29.900Z,1.59
2022-11-18T01:51:07.139Z,1.58
2022-11-18T01:53:42.450Z,1.59
2022-11-18T01:56:19.122Z,1.62
2022-11-18T01:58:57.764Z,1.64
2022-11-18T02:01:30.163Z,1.65
2022-11-18T02:04:02.508Z,1.67
2022-11-18T02:06:35.249Z,1.67
2022-11-18T02:09:08.621Z,1.68
2022-11-18T02:11:54.524Z,1.69
2022-11-18T02:14:29.297Z,1.67
2022-11-18T02:17:13.217Z,1.68
2022-11-18T02:20:17.937Z,1.68
2022-11-18T02:23:14.801Z,1.68
2022-11-18T02:26:07.594Z,1.70
2022-11-18T02:28:50.779Z,1.71
2022-11-18T02:31:29.213Z,1.70
2022-11-18T02:34:08.994Z,1.69
2022-11-18T02:36:48.018Z,1.69
2022-11-18T02:39:29.053Z,1.68
2022-11-18T02:42:04.189Z,1.68
2022-11-18T02:44:39.418Z,1.67
2022-11-18T02:47:15.431Z,1.65
2022-11-18T02:49:53.079Z,1.61
2022-11-18T02:52:28.029Z,1.61
2022-11-18T02:55:01.949Z,1.62
2022-11-18T02:57:36.392Z,1.65
2022-11-18T03:00:13.015Z,1.67
2022-11-18T03:02:48.174Z,1.67
2022-11-18T03:05:33.980Z,1.68
2022-11-18T03:08:12.402Z,1.68
2022-11-18T03:10:51.075Z,1.64
2022-11-18T03:13:30.256Z,1.62
2022-11-18T03:16:06.036Z,1.64
2022-11-18T03:18:46.990Z,1.63
2022-11-18T03:21:24.449Z,1.63
2022-11-18T03:24:05.815Z,1.62
2022-11-18T03:26:41.061Z,1.62
2022-11-18T03:29:19.739Z,1.62
2022-11-18T03:31:55.695Z,1.61
2022-11-18T03:34:31.791Z,1.58
2022-11-18T03:37:10.389Z,1.56
2022-11-18T03:39:49.576Z,1.55
2022-11-18T03:42:26.532Z,1.52
2022-11-18T03:45:03.528Z,1.52
2022-11-18T03:47:41.614Z,1.53
2022-11-18T03:50:18.566Z,1.53
2022-11-18T03:52:54.845Z,1.54
2022-11-18T03:55:33.733Z,1.53
2022-11-18T03:58:11.498Z,1.56
2022-11-18T04:00:47.313Z,1.56
2022-11-18T04:03:20.739Z,1.59
2022-11-18T04:05:57.754Z,1.62
2022-11-18T04:08:34.911Z,1.63
2022-11-18T04:11:35.253Z,1.63
2022-11-18T04:14:10.563Z,1.63
2022-11-18T04:16:45.107Z,1.63
2022-11-18T04:19:17.301Z,1.60
2022-11-18T04:21:50.623Z,1.58
2022-11-18T04:24:22.772Z,1.54
2022-11-18T04:26:54.863Z,1.53
2022-11-18T04:29:27.051Z,1.49
2022-11-18T04:31:59.591Z,1.45
2022-11-18T04:34:34.837Z,1.41
2022-11-18T04:37:07.200Z,1.36
2022-11-18T04:39:39.280Z,1.34
2022-11-18T04:42:14.262Z,1.29
2022-11-18T04:44:46.455Z,1.26
2022-11-18T04:47:18.535Z,1.24
2022-11-18T04:49:50.902Z,1.24
2022-11-18T04:52:23.040Z,1.26
2022-11-18T04:54:55.123Z,1.22
2022-11-18T04:57:27.264Z,1.22
2022-11-18T04:59:59.473Z,1.24
2022-11-18T05:02:31.609Z,1.24
2022-11-18T05:05:03.667Z,1.22
2022-11-18T05:07:35.747Z,1.20
2022-11-18T05:10:09.483Z,1.17
2022-11-18T05:12:51.008Z,1.14
2022-11-18T05:15:25.010Z,1.12
2022-11-18T05:17:57.488Z,1.11
2022-11-18T05:20:29.659Z,1.08
2022-11-18T05:23:02.116Z,1.06
2022-11-18T05:25:34.215Z,1.05
2022-11-18T05:28:07.758Z,1.06
2022-11-18T05:30:40.425Z,1.07
2022-11-18T05:33:12.573Z,1.06
2022-11-18T05:35:44.853Z,1.05
2022-11-18T05:38:16.994Z,1.03
2022-11-18T05:40:49.129Z,1.01
2022-11-18T05:43:21.555Z,1.01
2022-11-18T05:45:54.778Z,1.02
2022-11-18T05:48:27.359Z,1.02
2022-11-18T05:50:59.489Z,1.00
2022-11-18T05:53:31.608Z,1.02
2022-11-18T05:56:10.623Z,1.02
2022-11-18T05:58:42.829Z,1.03
2022-11-18T06:01:19.622Z,1.06
2022-11-18T06:03:52.461Z,1.07
2022-11-18T06:06:25.952Z,1.06
2022-11-18T06:09:03.688Z,1.03
2022-11-18T06:11:41.587Z,0.97
2022-11-18T06:14:17.914Z,0.92
2022-11-18T06:16:53.584Z,0.90
2022-11-18T06:19:29.353Z,0.87
2022-11-18T06:22:02.242Z,0.86
2022-11-18T06:24:34.716Z,0.84
2022-11-18T06:27:07.355Z,0.80
2022-11-18T06:29:39.639Z,0.78
2022-11-18T06:32:12.246Z,0.75
2022-11-18T06:34:44.508Z,0.72
2022-11-18T06:37:17.929Z,0.69
2022-11-18T06:39:50.579Z,0.68
2022-11-18T06:42:36.614Z,0.62
2022-11-18T06:45:10.435Z,0.56
2022-11-18T06:47:42.868Z,0.53
2022-11-18T06:50:15.277Z,0.51
2022-11-18T06:52:47.737Z,0.51
2022-11-18T06:55:19.844Z,0.51
2022-11-18T06:57:51.991Z,0.51
2022-11-18T07:00:24.805Z,0.51
2022-11-18T07:02:56.954Z,0.51
2022-11-18T07:05:28.990Z,0.52
2022-11-18T07:08:01.069Z,0.52
2022-11-18T07:10:33.161Z,0.52
2022-11-18T07:13:05.697Z,0.49
2022-11-18T07:15:37.864Z,0.47
2022-11-18T07:18:09.959Z,0.44
2022-11-18T07:20:42.502Z,0.41
2022-11-18T07:23:14.556Z,0.38
2022-11-18T07:25:46.641Z,0.33
2022-11-18T07:28:18.668Z,0.29
2022-11-18T07:30:50.736Z,0.28
2022-11-18T07:33:22.769Z,0.27
2022-11-18T07:35:54.950Z,0.27
2022-11-18T07:38:27.314Z,0.28
2022-11-18T07:41:06.500Z,0.28
2022-11-18T07:43:40.272Z,0.27
2022-11-18T07:46:14.331Z,0.26
2022-11-18T07:48:48.790Z,0.26
2022-11-18T07:51:23.727Z,0.28
2022-11-18T07:53:55.901Z,0.25
2022-11-18T07:56:28.361Z,0.23
2022-11-18T07:59:00.656Z,0.22
2022-11-18T08:01:33.410Z,0.21
2022-11-18T08:04:09.765Z,0.18
2022-11-18T08:06:42.403Z,0.13
2022-11-18T08:09:18.282Z,0.11
2022-11-18T08:11:50.952Z,0.09
2022-11-18T08:14:24.367Z,0.08
2022-11-18T08:16:59.428Z,0.05
2022-11-18T08:19:31.539Z,0.07
2022-11-18T08:22:03.584Z,0.08
2022-11-18T08:24:35.739Z,0.09
2022-11-18T08:27:08.213Z,0.08
2022-11-18T08:29:40.858Z,0.07
2022-11-18T08:32:13.090Z,0.08
2022-11-18T08:34:45.779Z,0.07
2022-11-18T08:37:18.214Z,0.00
2022-11-18T08:39:50.731Z,-0.06
2022-11-18T08:42:24.482Z,-0.11
2022-11-18T08:45:00.353Z,-0.15
2022-11-18T08:47:32.628Z,-0.17
2022-11-18T08:50:05.165Z,-0.15
2022-11-18T08:52:37.611Z,-0.11
2022-11-18T08:55:10.564Z,-0.09
2022-11-18T08:57:42.899Z,-0.09
2022-11-18T09:00:17.286Z,-0.09
2022-11-18T09:02:49.538Z,-0.09
2022-11-18T09:05:21.810Z,-0.11
2022-11-18T09:07:54.085Z,-0.11
2022-11-18T09:10:26.276Z,-0.10
2022-11-18T09:17:07.787Z,-0.04
2022-11-18T09:19:49.242Z,-0.01
2022-11-18T09:23:11.322Z,0.04
2022-11-18T09:29:59.044Z,0.06
2022-11-18T09:32:31.378Z,0.08
2022-11-18T09:35:17.408Z,0.08
2022-11-18T09:37:52.567Z,0.07
2022-11-18T09:41:31.180Z,0.06
2022-11-18T09:54:03.002Z,-0.01
2022-11-18T09:56:35.220Z,0.04
2022-11-18T09:59:08.060Z,0.05
2022-11-18T10:19:58.084Z,0.05
2022-11-18T10:31:31.812Z,0.05
2022-11-18T10:34:04.713Z,0.07
2022-11-18T10:36:44.013Z,0.08
2022-11-18T10:39:17.941Z,0.10
2022-11-18T10:47:01.211Z,0.09
2022-11-18T10:54:27.791Z,-0.02
2022-11-18T10:58:19.368Z,0.02
2022-11-18T11:00:52.362Z,0.07
2022-11-18T11:08:48.268Z,0.07
2022-11-18T11:15:39.614Z,0.11
2022-11-18T11:22:59.010Z,0.12
2022-11-18T11:30:28.267Z,0.13
2022-11-18T11:34:23.103Z,0.13
2022-11-18T11:45:03.272Z,0.15
2022-11-18T12:00:17.837Z,0.13
2022-11-18T12:03:35.204Z,0.14
2022-11-18T12:06:09.151Z,0.19
2022-11-18T12:12:55.328Z,0.20
2022-11-18T12:15:47.549Z,0.15
2022-11-18T12:18:26.200Z,0.12
2022-11-18T12:20:58.597Z,0.10
2022-11-18T12:23:31.630Z,0.06
2022-11-18T12:26:07.565Z,0.04
2022-11-18T12:28:42.352Z,0.04
2022-11-18T12:31:35.979Z,0.02
2022-11-18T12:34:21.637Z,0.02
2022-11-18T12:36:55.414Z,0.05
2022-11-18T12:40:01.241Z,0.07
2022-11-18T12:43:03.101Z,0.09
2022-11-18T12:45:52.585Z,0.05
2022-11-18T12:48:40.195Z,0.02
2022-11-18T12:51:48.972Z,-0.02
2022-11-18T12:54:32.157Z,-0.06
2022-11-18T12:57:14.854Z,-0.08
2022-11-18T12:59:47.131Z,-0.11
2022-11-18T13:02:27.689Z,-0.14
2022-11-18T13:05:11.444Z,-0.14
2022-11-18T13:08:04.687Z,-0.16
2022-11-18T13:10:40.484Z,-0.18
2022-11-18T13:13:25.972Z,-0.18
2022-11-18T13:16:17.564Z,-0.21
2022-11-18T13:18:54.215Z,-0.21
2022-11-18T13:21:46.291Z,-0.19
2022-11-18T13:24:20.660Z,-0.19
2022-11-18T13:26:58.537Z,-0.19
2022-11-18T13:29:58.736Z,-0.23
2022-11-18T13:32:31.568Z,-0.23
2022-11-18T13:35:13.008Z,-0.23
2022-11-18T13:37:54.324Z,-0.24
2022-11-18T13:40:29.221Z,-0.24
2022-11-18T13:43:01.375Z,-0.21
2022-11-18T13:45:35.406Z,-0.21
2022-11-18T13:48:16.126Z,-0.22
2022-11-18T13:50:55.184Z,-0.21
2022-11-18T13:53:32.252Z,-0.19
2022-11-18T13:56:07.746Z,-0.20
2022-11-18T14:01:36.667Z,-0.26
2022-11-18T14:04:17.459Z,-0.28
2022-11-18T14:06:49.903Z,-0.31
2022-11-18T14:09:28.190Z,-0.32
2022-11-18T14:12:07.491Z,-0.34
2022-11-18T14:14:41.757Z,-0.38
2022-11-18T14:17:22.757Z,-0.41
2022-11-18T14:19:56.935Z,-0.38
2022-11-18T14:22:30.951Z,-0.41
2022-11-18T14:25:06.100Z,-0.44
2022-11-18T14:27:40.711Z,-0.44
2022-11-18T14:30:34.980Z,-0.48
2022-11-18T14:46:38.682Z,-0.59
2022-11-18T14:49:59.826Z,-0.57
2022-11-18T14:52:32.003Z,-0.59
2022-11-18T14:55:04.128Z,-0.64
2022-11-18T14:57:42.906Z,-0.65
2022-11-18T15:00:48.945Z,-0.67
2022-11-18T15:03:21.226Z,-0.70
2022-11-18T15:05:54.569Z,-0.70
2022-11-18T15:08:26.872Z,-0.71
2022-11-18T15:16:19.618Z,-0.79
2022-11-18T15:23:49.057Z,-0.84
2022-11-18T15:35:29.147Z,-0.97
2022-11-18T15:38:08.076Z,-1.01
2022-11-18T15:41:07.024Z,-1.02
2022-11-18T15:44:11.365Z,-1.02
2022-11-18T15:46:50.515Z,-0.98
2022-11-18T15:57:43.829Z,-1.11
2022-11-18T16:01:12.683Z,-1.12
2022-11-18T16:03:44.940Z,-1.13
2022-11-18T16:06:17.171Z,-1.13
2022-11-18T16:09:00.010Z,-1.15
2022-11-18T16:16:23.537Z,-1.16
2022-11-18T16:18:58.318Z,-1.16
2022-11-18T16:21:48.807Z,-1.19
2022-11-18T16:24:23.600Z,-1.20
2022-11-18T16:27:44.971Z,-1.20
2022-11-18T16:35:15.624Z,-1.15
2022-11-18T16:37:54.042Z,-1.16
2022-11-18T16:40:28.605Z,-1.17
2022-11-18T16:43:52.762Z,-1.18
2022-11-18T16:47:35.733Z,-1.17
2022-11-18T16:50:08.927Z,-1.15
2022-11-18T17:01:31.661Z,-1.07
2022-11-18T17:04:06.258Z,-1.07
2022-11-18T17:07:39.987Z,-1.07
2022-11-18T17:10:21.447Z,-1.07
2022-11-18T17:23:10.426Z,-1.12
2022-11-18T17:26:23.773Z,-1.13
2022-11-18T17:28:57.996Z,-1.16
2022-11-18T17:32:35.548Z,-1.15
2022-11-18T17:35:14.308Z,-1.12
2022-11-18T17:37:46.836Z,-1.10
2022-11-18T17:40:25.093Z,-1.07
2022-11-18T17:42:57.200Z,-1.04
2022-11-18T17:49:37.289Z,-1.02
2022-11-18T17:52:09.574Z,-1.01
2022-11-18T17:58:45.044Z,-0.97
2022-11-18T18:07:22.590Z,-0.90
2022-11-18T18:09:56.294Z,-0.85
2022-11-18T18:16:55.266Z,-0.78
2022-11-18T18:19:27.528Z,-0.77
2022-11-18T18:26:59.269Z,-0.76
2022-11-18T18:34:30.750Z,-0.69
2022-11-18T18:37:09.120Z,-0.68
2022-11-18T18:39:41.307Z,-0.67
2022-11-18T18:42:14.326Z,-0.66
2022-11-18T18:48:54.477Z,-0.65
2022-11-18T18:51:27.091Z,-0.65
2022-11-18T18:54:06.970Z,-0.65
2022-11-18T19:01:34.780Z,-0.65
2022-11-18T19:12:29.715Z,-0.61
2022-11-18T19:16:23.909Z,-0.61
2022-11-18T19:19:02.633Z,-0.61
2022-11-18T19:21:35.487Z,-0.63
2022-11-18T19:27:26.559Z,-0.58
2022-11-18T19:29:59.267Z,-0.63
2022-11-18T19:32:31.856Z,-0.64
2022-11-18T19:44:01.714Z,-0.65
2022-11-18T19:47:11.489Z,-0.67
2022-11-18T19:49:43.658Z,-0.71
2022-11-18T19:52:15.922Z,-0.72
2022-11-18T19:59:20.493Z,-0.77
2022-11-18T20:02:22.226Z,-0.78
2022-11-18T20:08:59.264Z,-0.78
2022-11-18T20:20:52.526Z,-0.80
2022-11-18T20:23:24.956Z,-0.78
2022-11-18T20:26:45.136Z,-0.79
2022-11-18T20:30:00.200Z,-0.80
2022-11-18T20:41:30.681Z,-0.85
2022-11-18T20:44:11.700Z,-0.85
2022-11-18T20:56:45.057Z,-0.96
2022-11-18T20:59:17.814Z,-0.94
2022-11-18T21:01:50.190Z,-0.91
2022-11-18T21:04:29.339Z,-0.90
2022-11-18T21:10:46.258Z,-0.91
2022-11-18T21:22:13.036Z,-0.90
2022-11-18T21:24:47.435Z,-0.94
2022-11-18T21:32:11.016Z,-1.00
2022-11-18T21:38:51.237Z,-0.97
2022-11-18T21:41:31.200Z,-0.97
2022-11-18T21:44:06.345Z,-0.94
2022-11-18T21:47:29.255Z,-0.92
2022-11-18T21:50:10.063Z,-0.94
2022-11-18T21:52:42.430Z,-0.92
2022-11-18T21:59:38.881Z,-0.93
2022-11-18T22:03:19.119Z,-0.97
2022-11-18T22:05:59.047Z,-1.02
2022-11-18T22:08:50.058Z,-1.00
2022-11-18T22:11:28.813Z,-0.97
2022-11-18T22:14:01.117Z,-0.98
2022-11-18T22:25:25.509Z,-0.97
2022-11-18T22:28:02.684Z,-0.96
2022-11-18T22:30:34.809Z,-0.95
2022-11-18T22:33:07.194Z,-0.94
2022-11-18T22:40:38.602Z,-0.91
2022-11-18T22:43:12.112Z,-0.89
2022-11-18T22:45:50.294Z,-0.84
2022-11-18T22:48:22.467Z,-0.82
2022-11-18T23:04:24.219Z,-0.91
2022-11-18T23:07:48.393Z,-0.92
2022-11-18T23:10:20.817Z,-0.88
2022-11-18T23:13:17.988Z,-0.83
2022-11-18T23:19:59.508Z,-0.76
2022-11-18T23:22:31.709Z,-0.72
2022-11-18T23:25:03.808Z,-0.73
2022-11-18T23:27:35.985Z,-0.74
2022-11-18T23:30:15.647Z,-0.77
2022-11-18T23:32:47.745Z,-0.77
2022-11-18T23:35:26.599Z,-0.77
2022-11-18T23:37:58.877Z,-0.77
2022-11-18T23:44:52.917Z,-0.74
2022-11-18T23:47:25.091Z,-0.69
2022-11-18T23:59:37.875Z,-0.63
